sensor_id;sensor_type;location;lat;lon;timestamp;P1;durP1;ratioP1;P2;durP2;ratioP2
71821;SDS011;64096;52.548;13.406;2023-01-15T06:07:27;0.43;;;0.20;;
71821;SDS011;64096;52.548;13.406;2023-01-15T06:09:53;0.57;;;0.25;;
71821;SDS011;64096;52.548;13.406;2023-01-15T06:12:19;0.80;;;0.30;;
71821;SDS011;64096;52.548;13.406;2023-01-15T06:14:45;0.88;;;0.25;;
71821;SDS011;64096;52.548;13.406;2023-01-15T06:17:11;0.65;;;0.28;;
71821;SDS011;64096;52.548;13.406;2023-01-15T06:19:39;0.75;;;0.20;;
71821;SDS011;64096;52.548;13.406;2023-01-15T06:22:05;2.00;;;0.38;;
71821;SDS011;64096;52.548;13.406;2023-01-15T06:24:31;0.32;;;0.10;;
71821;SDS011;64096;52.548;13.406;2023-01-15T06:26:57;1.50;;;0.22;;
71821;SDS011;64096;52.548;13.406;2023-01-15T06:29:23;1.23;;;0.30;;
71821;SDS011;64096;52.548;13.406;2023-01-15T06:31:49;1.38;;;0.30;;
71821;SDS011;64096;52.548;13.406;2023-01-15T06:34:15;2.28;;;0.40;;
71821;SDS011;64096;52.548;13.406;2023-01-15T06:36:41;0.80;;;0.13;;
71821;SDS011;64096;52.548;13.406;2023-01-15T06:39:07;1.20;;;0.32;;
71821;SDS011;64096;52.548;13.406;2023-01-15T06:41:33;0.52;;;0.20;;
71821;SDS011;64096;52.548;13.406;2023-01-15T06:44:17;0.28;;;0.10;;
71821;SDS011;64096;52.548;13.406;2023-01-15T06:47:08;0.73;;;0.20;;
71821;SDS011;64096;52.548;13.406;2023-01-15T06:49:45;1.02;;;0.10;;
71821;SDS011;64096;52.548;13.406;2023-01-15T06:52:12;1.10;;;0.22;;
71821;SDS011;64096;52.548;13.406;2023-01-15T06:54:38;0.98;;;0.25;;
71821;SDS011;64096;52.548;13.406;2023-01-15T06:57:04;0.73;;;0.30;;
71821;SDS011;64096;52.548;13.406;2023-01-15T06:59:30;0.13;;;0.10;;
71821;SDS011;64096;52.548;13.406;2023-01-15T07:01:56;0.43;;;0.15;;
71821;SDS011;64096;52.548;13.406;2023-01-15T07:04:22;1.65;;;0.30;;
71821;SDS011;64096;52.548;13.406;2023-01-15T07:06:48;1.00;;;0.20;;
71821;SDS011;64096;52.548;13.406;2023-01-15T07:09:15;0.32;;;0.15;;
71821;SDS011;64096;52.548;13.406;2023-01-15T07:11:41;0.45;;;0.20;;
71821;SDS011;64096;52.548;13.406;2023-01-15T07:14:19;0.68;;;0.20;;
71821;SDS011;64096;52.548;13.406;2023-01-15T07:16:46;0.57;;;0.20;;
71821;SDS011;64096;52.548;13.406;2023-01-15T07:19:12;1.08;;;0.13;;
71821;SDS011;64096;52.548;13.406;2023-01-15T07:21:39;1.00;;;0.20;;
71821;SDS011;64096;52.548;13.406;2023-01-15T07:24:05;0.70;;;0.20;;
71821;SDS011;64096;52.548;13.406;2023-01-15T07:26:32;1.00;;;0.20;;
71821;SDS011;64096;52.548;13.406;2023-01-15T07:28:58;0.88;;;0.30;;
71821;SDS011;64096;52.548;13.406;2023-01-15T07:31:24;1.20;;;0.55;;
71821;SDS011;64096;52.548;13.406;2023-01-15T07:33:50;1.70;;;0.40;;
71821;SDS011;64096;52.548;13.406;2023-01-15T07:36:16;1.38;;;0.28;;
71821;SDS011;64096;52.548;13.406;2023-01-15T07:38:42;0.93;;;0.30;;
71821;SDS011;64096;52.548;13.406;2023-01-15T07:41:08;0.63;;;0.35;;
71821;SDS011;64096;52.548;13.406;2023-01-15T07:43:53;0.85;;;0.22;;
71821;SDS011;64096;52.548;13.406;2023-01-15T07:46:38;0.73;;;0.30;;
71821;SDS011;64096;52.548;13.406;2023-01-15T07:49:22;1.05;;;0.40;;
71821;SDS011;64096;52.548;13.406;2023-01-15T07:52:07;1.08;;;0.50;;
71821;SDS011;64096;52.548;13.406;2023-01-15T07:54:33;0.60;;;0.30;;
71821;SDS011;64096;52.548;13.406;2023-01-15T07:56:59;0.75;;;0.20;;
71821;SDS011;64096;52.548;13.406;2023-01-15T07:59:25;0.95;;;0.30;;
71821;SDS011;64096;52.548;13.406;2023-01-15T08:01:51;1.02;;;0.30;;
71821;SDS011;64096;52.548;13.406;2023-01-15T08:04:17;0.95;;;0.40;;
71821;SDS011;64096;52.548;13.406;2023-01-15T08:06:43;1.73;;;0.43;;
71821;SDS011;64096;52.548;13.406;2023-01-15T08:09:10;1.05;;;0.20;;
71821;SDS011;64096;52.548;13.406;2023-01-15T08:11:36;1.48;;;0.47;;
71821;SDS011;64096;52.548;13.406;2023-01-15T08:14:20;0.85;;;0.20;;
71821;SDS011;64096;52.548;13.406;2023-01-15T08:17:05;1.35;;;0.52;;
71821;SDS011;64096;52.548;13.406;2023-01-15T08:19:31;0.43;;;0.20;;
71821;SDS011;64096;52.548;13.406;2023-01-15T08:21:57;1.30;;;0.30;;
71821;SDS011;64096;52.548;13.406;2023-01-15T08:24:26;2.38;;;0.43;;
71821;SDS011;64096;52.548;13.406;2023-01-15T08:26:53;0.82;;;0.30;;
71821;SDS011;64096;52.548;13.406;2023-01-15T08:29:19;0.90;;;0.40;;
71821;SDS011;64096;52.548;13.406;2023-01-15T08:31:46;2.03;;;0.40;;
71821;SDS011;64096;52.548;13.406;2023-01-15T08:34:12;1.00;;;0.50;;
71821;SDS011;64096;52.548;13.406;2023-01-15T08:36:38;1.05;;;0.30;;
71821;SDS011;64096;52.548;13.406;2023-01-15T08:39:04;1.08;;;0.43;;
71821;SDS011;64096;52.548;13.406;2023-01-15T08:41:30;1.23;;;0.52;;
71821;SDS011;64096;52.548;13.406;2023-01-15T08:43:56;0.82;;;0.32;;
71821;SDS011;64096;52.548;13.406;2023-01-15T08:46:24;1.38;;;0.50;;
71821;SDS011;64096;52.548;13.406;2023-01-15T08:48:50;0.70;;;0.38;;
71821;SDS011;64096;52.548;13.406;2023-01-15T08:51:17;0.80;;;0.32;;
71821;SDS011;64096;52.548;13.406;2023-01-15T08:53:43;1.08;;;0.40;;
71821;SDS011;64096;52.548;13.406;2023-01-15T08:56:16;1.98;;;0.50;;
71821;SDS011;64096;52.548;13.406;2023-01-15T08:58:43;0.80;;;0.40;;
71821;SDS011;64096;52.548;13.406;2023-01-15T09:01:09;1.17;;;0.43;;
71821;SDS011;64096;52.548;13.406;2023-01-15T09:03:36;1.23;;;0.52;;
71821;SDS011;64096;52.548;13.406;2023-01-15T09:06:02;2.15;;;0.50;;
71821;SDS011;64096;52.548;13.406;2023-01-15T09:08:30;0.82;;;0.40;;
71821;SDS011;64096;52.548;13.406;2023-01-15T09:10:56;0.45;;;0.25;;
71821;SDS011;64096;52.548;13.406;2023-01-15T09:13:23;1.70;;;0.50;;
71821;SDS011;64096;52.548;13.406;2023-01-15T09:15:49;1.58;;;0.52;;
71821;SDS011;64096;52.548;13.406;2023-01-15T09:18:15;1.52;;;0.47;;
71821;SDS011;64096;52.548;13.406;2023-01-15T09:20:46;1.67;;;0.30;;
71821;SDS011;64096;52.548;13.406;2023-01-15T09:23:12;1.20;;;0.30;;
71821;SDS011;64096;52.548;13.406;2023-01-15T09:25:38;2.15;;;0.50;;
71821;SDS011;64096;52.548;13.406;2023-01-15T09:28:05;2.22;;;0.50;;
71821;SDS011;64096;52.548;13.406;2023-01-15T09:30:31;2.10;;;0.40;;
71821;SDS011;64096;52.548;13.406;2023-01-15T09:32:57;1.63;;;0.40;;
71821;SDS011;64096;52.548;13.406;2023-01-15T09:35:23;1.10;;;0.50;;
71821;SDS011;64096;52.548;13.406;2023-01-15T09:37:50;1.25;;;0.45;;
71821;SDS011;64096;52.548;13.406;2023-01-15T09:40:20;1.42;;;0.40;;
71821;SDS011;64096;52.548;13.406;2023-01-15T09:42:50;0.68;;;0.40;;
71821;SDS011;64096;52.548;13.406;2023-01-15T09:45:27;1.60;;;0.40;;
71821;SDS011;64096;52.548;13.406;2023-01-15T09:55:45;1.60;;;0.40;;
71821;SDS011;64096;52.548;13.406;2023-01-15T09:58:14;1.07;;;0.43;;
71821;SDS011;64096;52.548;13.406;2023-01-15T10:00:45;1.80;;;0.50;;
71821;SDS011;64096;52.548;13.406;2023-01-15T10:08:37;1.23;;;0.52;;
71821;SDS011;64096;52.548;13.406;2023-01-15T10:16:10;1.27;;;0.47;;
71821;SDS011;64096;52.548;13.406;2023-01-15T10:18:36;1.95;;;0.38;;
71821;SDS011;64096;52.548;13.406;2023-01-15T10:21:13;1.50;;;0.50;;
71821;SDS011;64096;52.548;13.406;2023-01-15T10:23:46;1.73;;;0.50;;
71821;SDS011;64096;52.548;13.406;2023-01-15T10:26:25;1.85;;;0.40;;
71821;SDS011;64096;52.548;13.406;2023-01-15T10:29:03;2.53;;;0.47;;
71821;SDS011;64096;52.548;13.406;2023-01-15T10:47:36;1.27;;;0.40;;
71821;SDS011;64096;52.548;13.406;2023-01-15T10:50:17;0.52;;;0.30;;
71821;SDS011;64096;52.548;13.406;2023-01-15T10:52:58;1.30;;;0.40;;
71821;SDS011;64096;52.548;13.406;2023-01-15T10:55:28;2.87;;;0.40;;
71821;SDS011;64096;52.548;13.406;2023-01-15T10:58:00;1.00;;;0.43;;
71821;SDS011;64096;52.548;13.406;2023-01-15T11:00:30;0.95;;;0.32;;
71821;SDS011;64096;52.548;13.406;2023-01-15T11:03:00;0.50;;;0.25;;
71821;SDS011;64096;52.548;13.406;2023-01-15T11:05:28;1.85;;;0.55;;
71821;SDS011;64096;52.548;13.406;2023-01-15T11:07:56;2.55;;;0.50;;
71821;SDS011;64096;52.548;13.406;2023-01-15T11:10:23;1.40;;;0.55;;
71821;SDS011;64096;52.548;13.406;2023-01-15T11:15:33;1.17;;;0.57;;
71821;SDS011;64096;52.548;13.406;2023-01-15T11:18:25;1.55;;;0.57;;
71821;SDS011;64096;52.548;13.406;2023-01-15T11:21:15;2.17;;;0.80;;
71821;SDS011;64096;52.548;13.406;2023-01-15T11:23:42;1.02;;;0.40;;
71821;SDS011;64096;52.548;13.406;2023-01-15T11:26:08;0.63;;;0.40;;
71821;SDS011;64096;52.548;13.406;2023-01-15T11:28:36;1.98;;;0.63;;
71821;SDS011;64096;52.548;13.406;2023-01-15T11:31:04;1.23;;;0.50;;
71821;SDS011;64096;52.548;13.406;2023-01-15T11:33:30;0.75;;;0.40;;
71821;SDS011;64096;52.548;13.406;2023-01-15T11:35:57;2.20;;;0.52;;
71821;SDS011;64096;52.548;13.406;2023-01-15T11:38:26;1.92;;;0.50;;
71821;SDS011;64096;52.548;13.406;2023-01-15T11:40:59;1.17;;;0.43;;
71821;SDS011;64096;52.548;13.406;2023-01-15T11:43:26;1.58;;;0.60;;
71821;SDS011;64096;52.548;13.406;2023-01-15T11:46:28;2.55;;;0.65;;
71821;SDS011;64096;52.548;13.406;2023-01-15T11:49:15;1.70;;;0.60;;
71821;SDS011;64096;52.548;13.406;2023-01-15T11:52:18;2.55;;;0.70;;
71821;SDS011;64096;52.548;13.406;2023-01-15T11:54:45;1.90;;;0.70;;
71821;SDS011;64096;52.548;13.406;2023-01-15T11:57:27;1.52;;;0.63;;
71821;SDS011;64096;52.548;13.406;2023-01-15T11:59:55;1.30;;;0.60;;
71821;SDS011;64096;52.548;13.406;2023-01-15T12:02:28;0.93;;;0.40;;
71821;SDS011;64096;52.548;13.406;2023-01-15T12:04:58;1.10;;;0.50;;
71821;SDS011;64096;52.548;13.406;2023-01-15T12:07:25;1.48;;;0.40;;
71821;SDS011;64096;52.548;13.406;2023-01-15T12:10:07;1.75;;;0.55;;
71821;SDS011;64096;52.548;13.406;2023-01-15T12:25:27;1.02;;;0.50;;
71821;SDS011;64096;52.548;13.406;2023-01-15T12:33:03;1.95;;;0.40;;
71821;SDS011;64096;52.548;13.406;2023-01-15T12:35:34;1.83;;;0.50;;
71821;SDS011;64096;52.548;13.406;2023-01-15T12:40:48;0.82;;;0.40;;
71821;SDS011;64096;52.548;13.406;2023-01-15T12:43:18;1.20;;;0.50;;
71821;SDS011;64096;52.548;13.406;2023-01-15T12:46:05;1.23;;;0.35;;
71821;SDS011;64096;52.548;13.406;2023-01-15T12:48:47;1.20;;;0.43;;
71821;SDS011;64096;52.548;13.406;2023-01-15T12:51:18;2.22;;;0.55;;
71821;SDS011;64096;52.548;13.406;2023-01-15T12:53:47;1.30;;;0.55;;
71821;SDS011;64096;52.548;13.406;2023-01-15T12:58:51;1.73;;;0.75;;
71821;SDS011;64096;52.548;13.406;2023-01-15T13:01:28;2.72;;;0.40;;
71821;SDS011;64096;52.548;13.406;2023-01-15T13:04:03;1.25;;;0.50;;
71821;SDS011;64096;52.548;13.406;2023-01-15T13:06:30;1.90;;;0.60;;
71821;SDS011;64096;52.548;13.406;2023-01-15T13:11:41;1.48;;;0.47;;
71821;SDS011;64096;52.548;13.406;2023-01-15T13:14:13;2.40;;;0.60;;
71821;SDS011;64096;52.548;13.406;2023-01-15T13:16:42;2.17;;;0.90;;
71821;SDS011;64096;52.548;13.406;2023-01-15T13:21:39;2.65;;;0.77;;
71821;SDS011;64096;52.548;13.406;2023-01-15T13:36:52;1.75;;;0.60;;
71821;SDS011;64096;52.548;13.406;2023-01-15T13:39:20;2.10;;;0.73;;
71821;SDS011;64096;52.548;13.406;2023-01-15T13:41:53;1.30;;;0.40;;
71821;SDS011;64096;52.548;13.406;2023-01-15T13:44:43;1.30;;;0.50;;
71821;SDS011;64096;52.548;13.406;2023-01-15T13:47:11;1.90;;;0.55;;
71821;SDS011;64096;52.548;13.406;2023-01-15T13:49:40;1.35;;;0.50;;
71821;SDS011;64096;52.548;13.406;2023-01-15T13:52:07;2.67;;;0.77;;
71821;SDS011;64096;52.548;13.406;2023-01-15T13:54:43;1.95;;;0.60;;
71821;SDS011;64096;52.548;13.406;2023-01-15T13:57:18;1.13;;;0.40;;
71821;SDS011;64096;52.548;13.406;2023-01-15T13:59:46;1.38;;;0.50;;
